sensor_id;sensor_type;location;lat;lon;timestamp;P1;durP1;ratioP1;P2;durP2;ratioP2
52180;SDS011;38158;53.338;6.514;2023-05-07T00:01:42;16.98;;;11.80;;
52180;SDS011;38158;53.338;6.514;2023-05-07T00:04:08;19.65;;;13.50;;
52180;SDS011;38158;53.338;6.514;2023-05-07T00:06:33;19.23;;;13.77;;
52180;SDS011;38158;53.338;6.514;2023-05-07T00:08:59;21.20;;;14.32;;
52180;SDS011;38158;53.338;6.514;2023-05-07T00:11:26;19.65;;;13.07;;
52180;SDS011;38158;53.338;6.514;2023-05-07T00:13:52;21.85;;;15.13;;
52180;SDS011;38158;53.338;6.514;2023-05-07T00:16:19;22.08;;;14.38;;
52180;SDS011;38158;53.338;6.514;2023-05-07T00:18:44;22.15;;;14.93;;
52180;SDS011;38158;53.338;6.514;2023-05-07T00:21:10;20.75;;;13.45;;
52180;SDS011;38158;53.338;6.514;2023-05-07T00:23:36;21.67;;;14.20;;
52180;SDS011;38158;53.338;6.514;2023-05-07T00:26:02;23.20;;;14.43;;
52180;SDS011;38158;53.338;6.514;2023-05-07T00:28:28;25.25;;;15.15;;
52180;SDS011;38158;53.338;6.514;2023-05-07T00:30:54;19.75;;;14.65;;
52180;SDS011;38158;53.338;6.514;2023-05-07T00:33:20;19.17;;;13.93;;
52180;SDS011;38158;53.338;6.514;2023-05-07T00:35:47;24.23;;;13.57;;
52180;SDS011;38158;53.338;6.514;2023-05-07T00:38:13;18.88;;;14.10;;
52180;SDS011;38158;53.338;6.514;2023-05-07T00:40:39;20.65;;;14.63;;
52180;SDS011;38158;53.338;6.514;2023-05-07T00:43:05;22.50;;;14.27;;
52180;SDS011;38158;53.338;6.514;2023-05-07T00:45:32;25.30;;;16.08;;
52180;SDS011;38158;53.338;6.514;2023-05-07T00:47:59;25.73;;;15.98;;
52180;SDS011;38158;53.338;6.514;2023-05-07T00:50:26;19.45;;;14.25;;
52180;SDS011;38158;53.338;6.514;2023-05-07T00:52:54;23.67;;;15.65;;
52180;SDS011;38158;53.338;6.514;2023-05-07T00:55:21;21.98;;;15.25;;
52180;SDS011;38158;53.338;6.514;2023-05-07T00:57:47;22.27;;;15.23;;
52180;SDS011;38158;53.338;6.514;2023-05-07T01:00:15;24.67;;;16.83;;
52180;SDS011;38158;53.338;6.514;2023-05-07T01:02:41;23.65;;;16.33;;
52180;SDS011;38158;53.338;6.514;2023-05-07T01:05:08;26.90;;;17.80;;
52180;SDS011;38158;53.338;6.514;2023-05-07T01:07:36;28.63;;;17.67;;
52180;SDS011;38158;53.338;6.514;2023-05-07T01:10:04;26.10;;;16.95;;
52180;SDS011;38158;53.338;6.514;2023-05-07T01:12:31;29.27;;;18.38;;
52180;SDS011;38158;53.338;6.514;2023-05-07T01:14:58;28.10;;;18.17;;
52180;SDS011;38158;53.338;6.514;2023-05-07T01:17:23;27.13;;;18.58;;
52180;SDS011;38158;53.338;6.514;2023-05-07T01:19:49;32.78;;;17.88;;
52180;SDS011;38158;53.338;6.514;2023-05-07T01:22:16;28.10;;;20.33;;
52180;SDS011;38158;53.338;6.514;2023-05-07T01:24:44;30.63;;;19.85;;
52180;SDS011;38158;53.338;6.514;2023-05-07T01:27:10;25.90;;;17.20;;
52180;SDS011;38158;53.338;6.514;2023-05-07T01:29:36;32.83;;;21.08;;
52180;SDS011;38158;53.338;6.514;2023-05-07T01:32:01;29.85;;;21.10;;
52180;SDS011;38158;53.338;6.514;2023-05-07T01:34:30;30.63;;;20.93;;
52180;SDS011;38158;53.338;6.514;2023-05-07T01:36:57;31.80;;;20.98;;
52180;SDS011;38158;53.338;6.514;2023-05-07T01:39:25;31.92;;;21.15;;
52180;SDS011;38158;53.338;6.514;2023-05-07T01:41:56;33.33;;;19.98;;
52180;SDS011;38158;53.338;6.514;2023-05-07T01:44:24;32.85;;;20.38;;
52180;SDS011;38158;53.338;6.514;2023-05-07T01:46:50;34.05;;;20.83;;
52180;SDS011;38158;53.338;6.514;2023-05-07T01:49:17;33.33;;;21.30;;
52180;SDS011;38158;53.338;6.514;2023-05-07T01:51:43;31.35;;;21.92;;
52180;SDS011;38158;53.338;6.514;2023-05-07T01:54:09;36.03;;;23.60;;
52180;SDS011;38158;53.338;6.514;2023-05-07T01:56:35;29.20;;;19.98;;
52180;SDS011;38158;53.338;6.514;2023-05-07T01:59:01;31.90;;;22.35;;
52180;SDS011;38158;53.338;6.514;2023-05-07T02:01:27;35.90;;;21.83;;
52180;SDS011;38158;53.338;6.514;2023-05-07T02:03:53;33.65;;;23.15;;
52180;SDS011;38158;53.338;6.514;2023-05-07T02:06:19;34.85;;;22.17;;
52180;SDS011;38158;53.338;6.514;2023-05-07T02:08:45;35.83;;;23.17;;
52180;SDS011;38158;53.338;6.514;2023-05-07T02:13:37;38.15;;;23.92;;
52180;SDS011;38158;53.338;6.514;2023-05-07T02:16:03;32.25;;;20.83;;
52180;SDS011;38158;53.338;6.514;2023-05-07T02:18:29;35.47;;;23.27;;
52180;SDS011;38158;53.338;6.514;2023-05-07T02:20:55;36.72;;;24.67;;
52180;SDS011;38158;53.338;6.514;2023-05-07T02:23:21;45.05;;;27.17;;
52180;SDS011;38158;53.338;6.514;2023-05-07T02:25:47;37.50;;;25.55;;
52180;SDS011;38158;53.338;6.514;2023-05-07T02:28:12;39.08;;;24.95;;
52180;SDS011;38158;53.338;6.514;2023-05-07T02:30:38;38.53;;;24.75;;
52180;SDS011;38158;53.338;6.514;2023-05-07T02:33:05;38.87;;;24.67;;
52180;SDS011;38158;53.338;6.514;2023-05-07T02:35:32;38.95;;;25.95;;
52180;SDS011;38158;53.338;6.514;2023-05-07T02:37:57;39.95;;;24.17;;
52180;SDS011;38158;53.338;6.514;2023-05-07T02:40:23;41.47;;;26.58;;
52180;SDS011;38158;53.338;6.514;2023-05-07T02:42:49;43.95;;;28.35;;
52180;SDS011;38158;53.338;6.514;2023-05-07T02:45:15;45.10;;;27.63;;
52180;SDS011;38158;53.338;6.514;2023-05-07T02:47:40;46.53;;;29.95;;
52180;SDS011;38158;53.338;6.514;2023-05-07T02:50:06;44.75;;;27.90;;
52180;SDS011;38158;53.338;6.514;2023-05-07T02:52:32;49.20;;;29.65;;
52180;SDS011;38158;53.338;6.514;2023-05-07T02:54:58;48.20;;;28.25;;
52180;SDS011;38158;53.338;6.514;2023-05-07T02:57:23;42.42;;;26.95;;
52180;SDS011;38158;53.338;6.514;2023-05-07T02:59:49;42.17;;;27.60;;
52180;SDS011;38158;53.338;6.514;2023-05-07T03:02:15;46.08;;;27.10;;
52180;SDS011;38158;53.338;6.514;2023-05-07T03:04:41;44.25;;;28.55;;
52180;SDS011;38158;53.338;6.514;2023-05-07T03:07:07;43.03;;;26.83;;
52180;SDS011;38158;53.338;6.514;2023-05-07T03:09:33;46.75;;;27.02;;
52180;SDS011;38158;53.338;6.514;2023-05-07T03:11:58;47.25;;;29.77;;
52180;SDS011;38158;53.338;6.514;2023-05-07T03:14:24;48.05;;;29.65;;
52180;SDS011;38158;53.338;6.514;2023-05-07T03:16:50;43.88;;;27.55;;
52180;SDS011;38158;53.338;6.514;2023-05-07T03:19:15;46.15;;;26.48;;
52180;SDS011;38158;53.338;6.514;2023-05-07T03:21:41;48.47;;;30.27;;
52180;SDS011;38158;53.338;6.514;2023-05-07T03:24:07;50.33;;;30.20;;
52180;SDS011;38158;53.338;6.514;2023-05-07T03:26:32;49.10;;;29.10;;
52180;SDS011;38158;53.338;6.514;2023-05-07T03:28:58;46.50;;;28.05;;
52180;SDS011;38158;53.338;6.514;2023-05-07T03:31:24;48.33;;;28.00;;
52180;SDS011;38158;53.338;6.514;2023-05-07T03:33:53;50.83;;;31.20;;
52180;SDS011;38158;53.338;6.514;2023-05-07T03:36:20;47.45;;;27.55;;
52180;SDS011;38158;53.338;6.514;2023-05-07T03:38:46;46.77;;;30.37;;
52180;SDS011;38158;53.338;6.514;2023-05-07T03:41:12;48.47;;;29.17;;
52180;SDS011;38158;53.338;6.514;2023-05-07T03:43:38;47.97;;;31.60;;
52180;SDS011;38158;53.338;6.514;2023-05-07T03:46:04;50.13;;;28.98;;
52180;SDS011;38158;53.338;6.514;2023-05-07T03:48:30;49.78;;;31.80;;
52180;SDS011;38158;53.338;6.514;2023-05-07T03:50:56;48.75;;;31.27;;
52180;SDS011;38158;53.338;6.514;2023-05-07T03:53:22;43.45;;;27.92;;
52180;SDS011;38158;53.338;6.514;2023-05-07T03:55:48;46.42;;;26.20;;
52180;SDS011;38158;53.338;6.514;2023-05-07T03:58:14;53.13;;;33.97;;
52180;SDS011;38158;53.338;6.514;2023-05-07T04:00:40;53.47;;;32.15;;
52180;SDS011;38158;53.338;6.514;2023-05-07T04:03:06;54.42;;;33.65;;
52180;SDS011;38158;53.338;6.514;2023-05-07T04:05:32;58.47;;;36.25;;
52180;SDS011;38158;53.338;6.514;2023-05-07T04:07:58;53.50;;;30.75;;
52180;SDS011;38158;53.338;6.514;2023-05-07T04:10:24;52.80;;;31.13;;
52180;SDS011;38158;53.338;6.514;2023-05-07T04:12:50;52.38;;;32.28;;
52180;SDS011;38158;53.338;6.514;2023-05-07T04:15:16;50.42;;;30.83;;
52180;SDS011;38158;53.338;6.514;2023-05-07T04:17:42;40.95;;;25.52;;
52180;SDS011;38158;53.338;6.514;2023-05-07T04:20:08;38.80;;;24.45;;
52180;SDS011;38158;53.338;6.514;2023-05-07T04:22:35;38.90;;;24.60;;
52180;SDS011;38158;53.338;6.514;2023-05-07T04:25:02;37.42;;;24.35;;
52180;SDS011;38158;53.338;6.514;2023-05-07T04:27:28;39.75;;;25.05;;
52180;SDS011;38158;53.338;6.514;2023-05-07T04:29:54;36.80;;;23.55;;
52180;SDS011;38158;53.338;6.514;2023-05-07T04:32:21;41.13;;;26.92;;
52180;SDS011;38158;53.338;6.514;2023-05-07T04:34:47;41.17;;;26.07;;
52180;SDS011;38158;53.338;6.514;2023-05-07T04:37:12;44.25;;;28.15;;
52180;SDS011;38158;53.338;6.514;2023-05-07T04:39:38;44.33;;;28.00;;
52180;SDS011;38158;53.338;6.514;2023-05-07T04:42:04;47.42;;;29.35;;
52180;SDS011;38158;53.338;6.514;2023-05-07T04:44:34;48.53;;;28.60;;
52180;SDS011;38158;53.338;6.514;2023-05-07T04:47:02;43.30;;;28.55;;
52180;SDS011;38158;53.338;6.514;2023-05-07T04:49:27;45.17;;;29.38;;
52180;SDS011;38158;53.338;6.514;2023-05-07T04:51:53;43.00;;;28.23;;
52180;SDS011;38158;53.338;6.514;2023-05-07T04:54:18;45.42;;;27.98;;
52180;SDS011;38158;53.338;6.514;2023-05-07T04:56:44;47.22;;;28.38;;
52180;SDS011;38158;53.338;6.514;2023-05-07T04:59:10;44.95;;;29.58;;
52180;SDS011;38158;53.338;6.514;2023-05-07T05:01:36;47.33;;;30.10;;
52180;SDS011;38158;53.338;6.514;2023-05-07T05:04:01;45.85;;;27.90;;
52180;SDS011;38158;53.338;6.514;2023-05-07T05:06:27;49.17;;;30.88;;
52180;SDS011;38158;53.338;6.514;2023-05-07T05:08:53;50.20;;;29.90;;
52180;SDS011;38158;53.338;6.514;2023-05-07T05:11:19;49.80;;;31.30;;
52180;SDS011;38158;53.338;6.514;2023-05-07T05:13:46;49.35;;;30.55;;
52180;SDS011;38158;53.338;6.514;2023-05-07T05:16:14;52.35;;;32.40;;
52180;SDS011;38158;53.338;6.514;2023-05-07T05:18:40;56.92;;;34.65;;
52180;SDS011;38158;53.338;6.514;2023-05-07T05:21:06;55.20;;;33.42;;
52180;SDS011;38158;53.338;6.514;2023-05-07T05:23:31;53.28;;;33.67;;
52180;SDS011;38158;53.338;6.514;2023-05-07T05:25:57;52.05;;;32.88;;
52180;SDS011;38158;53.338;6.514;2023-05-07T05:28:23;50.97;;;31.05;;
52180;SDS011;38158;53.338;6.514;2023-05-07T05:30:49;50.28;;;30.70;;
52180;SDS011;38158;53.338;6.514;2023-05-07T05:33:15;49.63;;;31.10;;
52180;SDS011;38158;53.338;6.514;2023-05-07T05:35:41;46.80;;;30.30;;
52180;SDS011;38158;53.338;6.514;2023-05-07T05:38:07;49.78;;;31.77;;
52180;SDS011;38158;53.338;6.514;2023-05-07T05:40:33;51.28;;;32.78;;
52180;SDS011;38158;53.338;6.514;2023-05-07T05:42:59;55.30;;;32.45;;
52180;SDS011;38158;53.338;6.514;2023-05-07T05:45:25;51.22;;;29.63;;
52180;SDS011;38158;53.338;6.514;2023-05-07T05:47:51;49.72;;;32.33;;
52180;SDS011;38158;53.338;6.514;2023-05-07T05:50:16;51.88;;;32.10;;
52180;SDS011;38158;53.338;6.514;2023-05-07T05:52:42;52.58;;;32.40;;
52180;SDS011;38158;53.338;6.514;2023-05-07T05:55:08;45.60;;;27.98;;
52180;SDS011;38158;53.338;6.514;2023-05-07T05:57:34;46.78;;;28.05;;
52180;SDS011;38158;53.338;6.514;2023-05-07T06:00:00;50.75;;;32.28;;
52180;SDS011;38158;53.338;6.514;2023-05-07T06:02:27;48.45;;;31.30;;
52180;SDS011;38158;53.338;6.514;2023-05-07T06:04:53;49.30;;;30.52;;
52180;SDS011;38158;53.338;6.514;2023-05-07T06:07:19;47.58;;;30.60;;
52180;SDS011;38158;53.338;6.514;2023-05-07T06:09:44;45.45;;;27.75;;
52180;SDS011;38158;53.338;6.514;2023-05-07T06:12:11;46.67;;;27.98;;
52180;SDS011;38158;53.338;6.514;2023-05-07T06:14:37;45.45;;;29.67;;
52180;SDS011;38158;53.338;6.514;2023-05-07T06:17:02;42.47;;;26.33;;
52180;SDS011;38158;53.338;6.514;2023-05-07T06:19:28;48.47;;;28.80;;
52180;SDS011;38158;53.338;6.514;2023-05-07T06:21:54;46.00;;;28.77;;
52180;SDS011;38158;53.338;6.514;2023-05-07T06:26:47;47.22;;;28.38;;
52180;SDS011;38158;53.338;6.514;2023-05-07T06:29:13;43.55;;;27.58;;
52180;SDS011;38158;53.338;6.514;2023-05-07T06:31:38;43.65;;;28.67;;
52180;SDS011;38158;53.338;6.514;2023-05-07T06:34:04;44.83;;;29.27;;
52180;SDS011;38158;53.338;6.514;2023-05-07T06:36:30;44.75;;;28.60;;
52180;SDS011;38158;53.338;6.514;2023-05-07T06:38:56;41.95;;;26.77;;
52180;SDS011;38158;53.338;6.514;2023-05-07T06:41:21;40.67;;;27.33;;
52180;SDS011;38158;53.338;6.514;2023-05-07T06:43:47;40.67;;;27.35;;
52180;SDS011;38158;53.338;6.514;2023-05-07T06:46:14;39.50;;;25.90;;
52180;SDS011;38158;53.338;6.514;2023-05-07T06:48:40;37.63;;;25.80;;
52180;SDS011;38158;53.338;6.514;2023-05-07T06:51:06;39.20;;;26.15;;
52180;SDS011;38158;53.338;6.514;2023-05-07T06:53:32;39.92;;;25.75;;
52180;SDS011;38158;53.338;6.514;2023-05-07T06:55:58;38.85;;;26.55;;
52180;SDS011;38158;53.338;6.514;2023-05-07T06:58:23;38.72;;;25.65;;
52180;SDS011;38158;53.338;6.514;2023-05-07T07:00:49;36.10;;;23.27;;
52180;SDS011;38158;53.338;6.514;2023-05-07T07:03:15;38.70;;;24.48;;
52180;SDS011;38158;53.338;6.514;2023-05-07T07:05:41;37.03;;;25.23;;
52180;SDS011;38158;53.338;6.514;2023-05-07T07:08:07;35.25;;;23.13;;
52180;SDS011;38158;53.338;6.514;2023-05-07T07:10:32;44.22;;;27.27;;
52180;SDS011;38158;53.338;6.514;2023-05-07T07:12:58;37.47;;;24.30;;
52180;SDS011;38158;53.338;6.514;2023-05-07T07:15:24;40.10;;;25.35;;
52180;SDS011;38158;53.338;6.514;2023-05-07T07:17:50;38.22;;;23.77;;
52180;SDS011;38158;53.338;6.514;2023-05-07T07:20:16;40.92;;;25.70;;
52180;SDS011;38158;53.338;6.514;2023-05-07T07:22:42;43.55;;;29.30;;
52180;SDS011;38158;53.338;6.514;2023-05-07T07:25:08;41.88;;;27.48;;
52180;SDS011;38158;53.338;6.514;2023-05-07T07:27:34;41.37;;;26.93;;
52180;SDS011;38158;53.338;6.514;2023-05-07T07:30:00;44.58;;;28.65;;
52180;SDS011;38158;53.338;6.514;2023-05-07T07:32:25;42.92;;;28.27;;
52180;SDS011;38158;53.338;6.514;2023-05-07T07:34:51;46.70;;;30.30;;
52180;SDS011;38158;53.338;6.514;2023-05-07T07:37:17;48.95;;;31.58;;
52180;SDS011;38158;53.338;6.514;2023-05-07T07:39:42;49.03;;;31.55;;
52180;SDS011;38158;53.338;6.514;2023-05-07T07:42:08;46.20;;;30.33;;
52180;SDS011;38158;53.338;6.514;2023-05-07T07:44:34;55.08;;;30.25;;
52180;SDS011;38158;53.338;6.514;2023-05-07T07:47:00;42.67;;;28.90;;
52180;SDS011;38158;53.338;6.514;2023-05-07T07:49:26;43.53;;;30.80;;
52180;SDS011;38158;53.338;6.514;2023-05-07T07:51:55;41.97;;;28.75;;
52180;SDS011;38158;53.338;6.514;2023-05-07T07:54:23;43.78;;;30.25;;
52180;SDS011;38158;53.338;6.514;2023-05-07T07:56:49;44.30;;;29.90;;
52180;SDS011;38158;53.338;6.514;2023-05-07T07:59:14;44.35;;;30.88;;
52180;SDS011;38158;53.338;6.514;2023-05-07T08:01:43;36.85;;;25.67;;
52180;SDS011;38158;53.338;6.514;2023-05-07T08:04:10;40.83;;;28.20;;
52180;SDS011;38158;53.338;6.514;2023-05-07T08:06:36;40.53;;;27.85;;
52180;SDS011;38158;53.338;6.514;2023-05-07T08:09:01;40.45;;;26.10;;
52180;SDS011;38158;53.338;6.514;2023-05-07T08:11:27;42.13;;;27.85;;
52180;SDS011;38158;53.338;6.514;2023-05-07T08:13:54;35.28;;;26.23;;
52180;SDS011;38158;53.338;6.514;2023-05-07T08:16:20;34.45;;;25.52;;
52180;SDS011;38158;53.338;6.514;2023-05-07T08:18:45;40.92;;;25.88;;
52180;SDS011;38158;53.338;6.514;2023-05-07T08:21:11;36.42;;;25.83;;
52180;SDS011;38158;53.338;6.514;2023-05-07T08:23:37;34.42;;;23.50;;
52180;SDS011;38158;53.338;6.514;2023-05-07T08:26:03;39.85;;;27.25;;
52180;SDS011;38158;53.338;6.514;2023-05-07T08:28:28;42.97;;;29.13;;
52180;SDS011;38158;53.338;6.514;2023-05-07T08:30:54;35.28;;;24.88;;
52180;SDS011;38158;53.338;6.514;2023-05-07T08:33:21;44.05;;;29.38;;
52180;SDS011;38158;53.338;6.514;2023-05-07T08:35:47;41.70;;;28.42;;
52180;SDS011;38158;53.338;6.514;2023-05-07T08:38:13;44.58;;;29.20;;
52180;SDS011;38158;53.338;6.514;2023-05-07T08:40:39;45.15;;;31.17;;
52180;SDS011;38158;53.338;6.514;2023-05-07T08:45:33;35.50;;;24.55;;
52180;SDS011;38158;53.338;6.514;2023-05-07T08:48:00;37.38;;;28.55;;
52180;SDS011;38158;53.338;6.514;2023-05-07T08:50:28;35.80;;;26.83;;
52180;SDS011;38158;53.338;6.514;2023-05-07T08:52:54;36.28;;;23.98;;
52180;SDS011;38158;53.338;6.514;2023-05-07T08:55:21;33.30;;;22.90;;
52180;SDS011;38158;53.338;6.514;2023-05-07T08:57:48;38.13;;;28.65;;
52180;SDS011;38158;53.338;6.514;2023-05-07T09:00:13;42.42;;;28.17;;
52180;SDS011;38158;53.338;6.514;2023-05-07T09:02:39;33.83;;;26.10;;
52180;SDS011;38158;53.338;6.514;2023-05-07T09:05:05;33.97;;;24.35;;
52180;SDS011;38158;53.338;6.514;2023-05-07T09:07:31;31.93;;;24.97;;
52180;SDS011;38158;53.338;6.514;2023-05-07T09:09:57;32.97;;;22.80;;
52180;SDS011;38158;53.338;6.514;2023-05-07T09:12:24;32.40;;;21.52;;
52180;SDS011;38158;53.338;6.514;2023-05-07T09:14:50;28.13;;;19.67;;
52180;SDS011;38158;53.338;6.514;2023-05-07T09:17:15;29.80;;;21.63;;
52180;SDS011;38158;53.338;6.514;2023-05-07T09:19:42;28.48;;;20.13;;
52180;SDS011;38158;53.338;6.514;2023-05-07T09:22:12;27.63;;;19.25;;
52180;SDS011;38158;53.338;6.514;2023-05-07T09:24:38;28.60;;;19.17;;
52180;SDS011;38158;53.338;6.514;2023-05-07T09:27:04;26.52;;;18.92;;
52180;SDS011;38158;53.338;6.514;2023-05-07T09:29:31;23.08;;;17.90;;
52180;SDS011;38158;53.338;6.514;2023-05-07T09:32:03;21.95;;;16.48;;
52180;SDS011;38158;53.338;6.514;2023-05-07T09:34:30;21.73;;;15.85;;
52180;SDS011;38158;53.338;6.514;2023-05-07T09:37:05;22.05;;;14.75;;
52180;SDS011;38158;53.338;6.514;2023-05-07T09:39:41;21.05;;;14.15;;
52180;SDS011;38158;53.338;6.514;2023-05-07T09:42:07;19.58;;;12.90;;
52180;SDS011;38158;53.338;6.514;2023-05-07T09:44:34;21.60;;;13.93;;
52180;SDS011;38158;53.338;6.514;2023-05-07T09:47:00;21.17;;;14.50;;
52180;SDS011;38158;53.338;6.514;2023-05-07T09:49:29;19.23;;;12.95;;
52180;SDS011;38158;53.338;6.514;2023-05-07T09:51:58;21.05;;;13.90;;
52180;SDS011;38158;53.338;6.514;2023-05-07T09:54:25;18.65;;;12.50;;
52180;SDS011;38158;53.338;6.514;2023-05-07T09:56:53;20.95;;;14.75;;
52180;SDS011;38158;53.338;6.514;2023-05-07T09:59:20;20.30;;;14.38;;
52180;SDS011;38158;53.338;6.514;2023-05-07T10:01:47;22.42;;;14.40;;
52180;SDS011;38158;53.338;6.514;2023-05-07T10:04:16;22.60;;;16.98;;
52180;SDS011;38158;53.338;6.514;2023-05-07T10:06:42;25.07;;;19.17;;
52180;SDS011;38158;53.338;6.514;2023-05-07T10:09:09;24.60;;;18.73;;
52180;SDS011;38158;53.338;6.514;2023-05-07T10:11:36;27.13;;;19.95;;
52180;SDS011;38158;53.338;6.514;2023-05-07T10:14:02;21.38;;;16.60;;
52180;SDS011;38158;53.338;6.514;2023-05-07T10:16:31;24.15;;;17.00;;
52180;SDS011;38158;53.338;6.514;2023-05-07T10:19:02;18.55;;;13.98;;
52180;SDS011;38158;53.338;6.514;2023-05-07T10:21:39;19.65;;;15.13;;
52180;SDS011;38158;53.338;6.514;2023-05-07T10:24:10;19.02;;;14.20;;
52180;SDS011;38158;53.338;6.514;2023-05-07T10:26:44;18.63;;;12.43;;
52180;SDS011;38158;53.338;6.514;2023-05-07T10:32:44;18.30;;;12.40;;
52180;SDS011;38158;53.338;6.514;2023-05-07T10:34:55;15.45;;;11.00;;
52180;SDS011;38158;53.338;6.514;2023-05-07T10:37:23;16.33;;;11.60;;
52180;SDS011;38158;53.338;6.514;2023-05-07T10:39:50;16.08;;;11.75;;
52180;SDS011;38158;53.338;6.514;2023-05-07T10:42:16;16.55;;;11.90;;
52180;SDS011;38158;53.338;6.514;2023-05-07T10:44:42;15.40;;;10.85;;
52180;SDS011;38158;53.338;6.514;2023-05-07T10:47:11;15.52;;;10.82;;
52180;SDS011;38158;53.338;6.514;2023-05-07T10:52:14;13.57;;;10.15;;
52180;SDS011;38158;53.338;6.514;2023-05-07T10:54:44;16.50;;;11.50;;
52180;SDS011;38158;53.338;6.514;2023-05-07T10:59:55;14.88;;;10.80;;
52180;SDS011;38158;53.338;6.514;2023-05-07T11:02:21;14.52;;;11.10;;
52180;SDS011;38158;53.338;6.514;2023-05-07T11:05:32;15.52;;;10.57;;
52180;SDS011;38158;53.338;6.514;2023-05-07T11:07:53;14.07;;;10.57;;
52180;SDS011;38158;53.338;6.514;2023-05-07T11:13:14;14.48;;;10.05;;
52180;SDS011;38158;53.338;6.514;2023-05-07T11:15:42;16.02;;;11.05;;
52180;SDS011;38158;53.338;6.514;2023-05-07T11:18:13;14.88;;;10.82;;
52180;SDS011;38158;53.338;6.514;2023-05-07T11:20:47;14.75;;;10.40;;
52180;SDS011;38158;53.338;6.514;2023-05-07T11:28:32;13.77;;;9.60;;
52180;SDS011;38158;53.338;6.514;2023-05-07T11:31:08;12.93;;;9.73;;
52180;SDS011;38158;53.338;6.514;2023-05-07T11:33:35;13.73;;;10.48;;
52180;SDS011;38158;53.338;6.514;2023-05-07T11:36:02;12.30;;;9.95;;
52180;SDS011;38158;53.338;6.514;2023-05-07T11:38:35;14.70;;;10.70;;
52180;SDS011;38158;53.338;6.514;2023-05-07T11:41:02;12.95;;;9.55;;
52180;SDS011;38158;53.338;6.514;2023-05-07T11:43:33;14.27;;;10.65;;
52180;SDS011;38158;53.338;6.514;2023-05-07T11:46:10;13.02;;;10.40;;
52180;SDS011;38158;53.338;6.514;2023-05-07T11:48:36;13.57;;;10.25;;
52180;SDS011;38158;53.338;6.514;2023-05-07T11:53:37;12.48;;;10.10;;
52180;SDS011;38158;53.338;6.514;2023-05-07T11:56:07;14.57;;;9.18;;
52180;SDS011;38158;53.338;6.514;2023-05-07T11:58:33;13.52;;;9.77;;
52180;SDS011;38158;53.338;6.514;2023-05-07T12:00:59;12.55;;;9.48;;
52180;SDS011;38158;53.338;6.514;2023-05-07T12:03:25;14.77;;;10.70;;
52180;SDS011;38158;53.338;6.514;2023-05-07T12:05:51;11.90;;;9.27;;
52180;SDS011;38158;53.338;6.514;2023-05-07T12:08:17;12.02;;;9.52;;
52180;SDS011;38158;53.338;6.514;2023-05-07T12:10:44;12.27;;;9.02;;
52180;SDS011;38158;53.338;6.514;2023-05-07T12:15:45;12.70;;;10.88;;
52180;SDS011;38158;53.338;6.514;2023-05-07T12:18:11;12.70;;;10.63;;
52180;SDS011;38158;53.338;6.514;2023-05-07T12:20:38;14.43;;;10.90;;
52180;SDS011;38158;53.338;6.514;2023-05-07T12:23:04;11.55;;;9.32;;
52180;SDS011;38158;53.338;6.514;2023-05-07T12:25:31;12.40;;;10.02;;
52180;SDS011;38158;53.338;6.514;2023-05-07T12:28:00;12.63;;;10.13;;
52180;SDS011;38158;53.338;6.514;2023-05-07T12:30:28;12.90;;;9.85;;
52180;SDS011;38158;53.338;6.514;2023-05-07T12:32:54;12.38;;;9.50;;
52180;SDS011;38158;53.338;6.514;2023-05-07T12:35:30;12.43;;;9.90;;
52180;SDS011;38158;53.338;6.514;2023-05-07T12:37:56;13.25;;;10.40;;
52180;SDS011;38158;53.338;6.514;2023-05-07T12:40:24;13.45;;;9.93;;
52180;SDS011;38158;53.338;6.514;2023-05-07T12:45:48;14.80;;;11.48;;
52180;SDS011;38158;53.338;6.514;2023-05-07T12:48:15;14.10;;;11.77;;
52180;SDS011;38158;53.338;6.514;2023-05-07T12:50:41;12.75;;;10.93;;
52180;SDS011;38158;53.338;6.514;2023-05-07T12:53:08;15.82;;;10.80;;
52180;SDS011;38158;53.338;6.514;2023-05-07T12:55:46;14.00;;;10.60;;
52180;SDS011;38158;53.338;6.514;2023-05-07T12:58:17;13.27;;;11.65;;
52180;SDS011;38158;53.338;6.514;2023-05-07T13:00:48;13.48;;;11.55;;
52180;SDS011;38158;53.338;6.514;2023-05-07T13:03:48;13.48;;;11.02;;
52180;SDS011;38158;53.338;6.514;2023-05-07T13:06:07;12.18;;;10.93;;
52180;SDS011;38158;53.338;6.514;2023-05-07T13:08:40;12.00;;;10.27;;
52180;SDS011;38158;53.338;6.514;2023-05-07T13:11:10;15.18;;;11.68;;
52180;SDS011;38158;53.338;6.514;2023-05-07T13:13:36;12.55;;;10.00;;
52180;SDS011;38158;53.338;6.514;2023-05-07T13:16:04;13.20;;;10.27;;
52180;SDS011;38158;53.338;6.514;2023-05-07T13:18:31;12.13;;;9.70;;
52180;SDS011;38158;53.338;6.514;2023-05-07T13:20:58;13.43;;;10.45;;
52180;SDS011;38158;53.338;6.514;2023-05-07T13:25:50;12.32;;;10.23;;
52180;SDS011;38158;53.338;6.514;2023-05-07T13:28:18;11.95;;;9.85;;
52180;SDS011;38158;53.338;6.514;2023-05-07T13:30:45;11.57;;;9.80;;
52180;SDS011;38158;53.338;6.514;2023-05-07T13:33:11;10.88;;;9.20;;
52180;SDS011;38158;53.338;6.514;2023-05-07T13:35:37;14.27;;;9.52;;
52180;SDS011;38158;53.338;6.514;2023-05-07T13:38:03;11.98;;;9.35;;
52180;SDS011;38158;53.338;6.514;2023-05-07T13:40:29;11.60;;;10.23;;
52180;SDS011;38158;53.338;6.514;2023-05-07T13:42:56;11.27;;;9.13;;
52180;SDS011;38158;53.338;6.514;2023-05-07T13:45:23;11.18;;;8.75;;
52180;SDS011;38158;53.338;6.514;2023-05-07T13:47:51;11.50;;;8.88;;
52180;SDS011;38158;53.338;6.514;2023-05-07T13:50:16;12.25;;;10.30;;
52180;SDS011;38158;53.338;6.514;2023-05-07T13:52:43;11.82;;;9.32;;
52180;SDS011;38158;53.338;6.514;2023-05-07T13:55:22;12.40;;;9.30;;
52180;SDS011;38158;53.338;6.514;2023-05-07T13:57:54;11.57;;;9.05;;
52180;SDS011;38158;53.338;6.514;2023-05-07T14:00:21;11.18;;;8.90;;
52180;SDS011;38158;53.338;6.514;2023-05-07T14:02:48;12.55;;;9.10;;
52180;SDS011;38158;53.338;6.514;2023-05-07T14:05:13;9.88;;;8.45;;
52180;SDS011;38158;53.338;6.514;2023-05-07T14:07:39;11.45;;;8.63;;
52180;SDS011;38158;53.338;6.514;2023-05-07T14:10:05;10.73;;;8.70;;
52180;SDS011;38158;53.338;6.514;2023-05-07T14:12:31;11.90;;;9.95;;
52180;SDS011;38158;53.338;6.514;2023-05-07T14:14:58;11.52;;;8.73;;
52180;SDS011;38158;53.338;6.514;2023-05-07T14:17:23;10.88;;;8.48;;
52180;SDS011;38158;53.338;6.514;2023-05-07T14:19:51;10.35;;;9.25;;
52180;SDS011;38158;53.338;6.514;2023-05-07T14:22:19;11.27;;;9.10;;
52180;SDS011;38158;53.338;6.514;2023-05-07T14:24:46;9.88;;;8.38;;
52180;SDS011;38158;53.338;6.514;2023-05-07T14:27:11;9.77;;;8.32;;
52180;SDS011;38158;53.338;6.514;2023-05-07T14:29:37;11.35;;;8.48;;
52180;SDS011;38158;53.338;6.514;2023-05-07T14:32:03;11.82;;;8.60;;
52180;SDS011;38158;53.338;6.514;2023-05-07T14:34:29;11.68;;;8.90;;
52180;SDS011;38158;53.338;6.514;2023-05-07T14:36:55;9.75;;;8.48;;
52180;SDS011;38158;53.338;6.514;2023-05-07T14:39:20;10.15;;;8.35;;
52180;SDS011;38158;53.338;6.514;2023-05-07T14:41:46;10.27;;;8.15;;
52180;SDS011;38158;53.338;6.514;2023-05-07T14:44:12;10.75;;;8.07;;
52180;SDS011;38158;53.338;6.514;2023-05-07T14:46:38;8.82;;;7.50;;
52180;SDS011;38158;53.338;6.514;2023-05-07T14:49:03;9.43;;;7.88;;
52180;SDS011;38158;53.338;6.514;2023-05-07T14:51:29;11.05;;;8.43;;
52180;SDS011;38158;53.338;6.514;2023-05-07T14:53:55;9.15;;;7.82;;
52180;SDS011;38158;53.338;6.514;2023-05-07T14:56:21;10.00;;;7.95;;